createdAt,value
2023-03-04T00:00:28.868Z,143539.69
2023-03-04T00:02:55.916Z,143533.66
2023-03-04T00:05:23.106Z,143545.75
2023-03-04T00:07:50.293Z,143538.50
2023-03-04T00:10:17.542Z,143569.88
2023-03-04T00:12:44.566Z,143577.13
2023-03-04T00:15:11.764Z,143581.97
2023-03-04T00:17:38.825Z,143572.31
2023-03-04T00:20:06.479Z,143569.88
2023-03-04T00:22:33.835Z,143560.22
2023-03-04T00:25:00.821Z,143587.97
2023-03-04T00:27:27.886Z,143590.41
2023-03-04T00:29:55.815Z,143596.44
2023-03-04T00:32:23.250Z,143594.00
2023-03-04T00:34:50.290Z,143585.59
2023-03-04T00:37:17.456Z,143591.63
2023-03-04T00:39:44.482Z,143594.00
2023-03-04T00:42:11.526Z,143606.09
2023-03-04T00:44:39.172Z,143551.75
2023-03-04T00:47:06.299Z,143586.78
2023-03-04T00:49:33.366Z,143619.38
2023-03-04T00:52:00.418Z,143613.34
2023-03-04T00:54:27.548Z,143623.00
2023-03-04T00:56:54.630Z,143620.56
2023-03-04T00:59:21.635Z,143630.22
2023-03-04T01:01:48.673Z,143642.31
2023-03-04T01:04:17.774Z,143658.03
2023-03-04T01:06:44.810Z,143658.03
2023-03-04T01:09:12.751Z,143661.63
2023-03-04T01:11:39.777Z,143660.41
2023-03-04T01:14:06.851Z,143585.59
2023-03-04T01:16:34.475Z,143668.88
2023-03-04T01:19:01.865Z,143664.03
2023-03-04T01:21:28.941Z,143677.34
2023-03-04T01:23:56.084Z,143707.53
2023-03-04T01:26:23.139Z,143661.63
2023-03-04T01:28:50.418Z,143705.09
2023-03-04T01:31:17.556Z,143734.06
2023-03-04T01:33:44.769Z,143720.78
2023-03-04T01:36:11.822Z,143720.78
2023-03-04T01:38:38.836Z,143718.38
2023-03-04T01:41:07.426Z,143709.94
2023-03-04T01:43:36.572Z,143731.69
2023-03-04T01:46:04.658Z,143724.41
2023-03-04T01:48:37.038Z,143738.91
2023-03-04T01:51:06.170Z,143697.84
2023-03-04T01:53:33.865Z,143731.69
2023-03-04T01:56:10.756Z,143734.06
2023-03-04T01:58:37.906Z,143750.97
2023-03-04T02:01:04.956Z,143706.28
2023-03-04T02:03:32.039Z,143750.97
2023-03-04T02:05:59.120Z,143723.22
2023-03-04T02:08:26.139Z,143747.34
2023-03-04T02:10:54.085Z,143746.16
2023-03-04T02:13:21.422Z,143666.44
2023-03-04T02:15:48.650Z,143741.34
2023-03-04T02:18:22.675Z,143746.16
2023-03-04T02:21:02.113Z,143729.25
2023-03-04T02:23:58.577Z,143747.34
2023-03-04T02:26:31.049Z,143714.75
2023-03-04T02:29:00.055Z,143753.44
2023-03-04T02:31:34.942Z,143750.97
2023-03-04T02:34:05.345Z,143763.09
2023-03-04T02:36:33.023Z,143767.91
2023-03-04T02:39:21.186Z,143782.41
2023-03-04T02:41:52.089Z,143782.41
2023-03-04T02:44:21.541Z,143772.75
2023-03-04T02:46:49.852Z,143790.84
2023-03-04T02:49:17.806Z,143795.69
2023-03-04T02:51:44.921Z,143876.63
2023-03-04T02:54:16.579Z,143823.47
2023-03-04T02:56:52.417Z,143817.44
2023-03-04T02:59:22.847Z,143917.72
2023-03-04T03:01:51.155Z,143864.53
2023-03-04T03:04:20.085Z,143920.13
2023-03-04T03:06:47.324Z,143854.88
2023-03-04T03:09:15.334Z,143916.53
2023-03-04T03:11:42.544Z,143906.84
2023-03-04T03:14:09.945Z,143941.88
2023-03-04T03:16:37.086Z,143945.50
2023-03-04T03:19:05.351Z,143929.81
2023-03-04T03:21:34.152Z,143850.03
2023-03-04T03:24:01.160Z,143926.19
2023-03-04T03:26:29.282Z,143928.56
2023-03-04T03:28:56.300Z,143937.03
2023-03-04T03:31:23.420Z,143914.09
2023-03-04T03:33:50.517Z,143922.56
2023-03-04T03:36:17.642Z,143944.31
2023-03-04T03:38:44.664Z,143956.38
2023-03-04T03:41:11.664Z,143944.31
2023-03-04T03:43:38.648Z,143920.13
2023-03-04T03:46:05.873Z,143915.28
2023-03-04T03:48:32.960Z,143956.38
2023-03-04T03:50:59.974Z,143967.28
2023-03-04T03:53:27.033Z,143949.13
2023-03-04T03:55:54.061Z,143975.75
2023-03-04T03:58:21.666Z,143958.81
2023-03-04T04:00:48.745Z,143979.38
2023-03-04T04:03:16.971Z,143956.38
2023-03-04T04:05:44.119Z,143859.72
2023-03-04T04:08:14.121Z,143964.84
2023-03-04T04:10:41.704Z,143955.16
2023-03-04T04:13:09.611Z,143975.75
2023-03-04T04:15:38.643Z,143956.38
2023-03-04T04:18:06.784Z,143961.25
2023-03-04T04:20:34.352Z,143953.97
2023-03-04T04:23:02.035Z,143968.47
2023-03-04T04:25:29.481Z,143980.56
2023-03-04T04:27:56.490Z,143978.13
2023-03-04T04:30:23.587Z,143978.13
2023-03-04T04:32:50.767Z,143963.63
2023-03-04T04:35:18.032Z,144026.50
2023-03-04T04:37:45.164Z,143993.88
2023-03-04T04:40:12.930Z,143995.06
2023-03-04T04:42:40.005Z,143953.97
2023-03-04T04:45:07.903Z,144021.66
2023-03-04T04:47:34.910Z,143885.09
2023-03-04T04:50:02.197Z,144019.22
2023-03-04T04:52:29.347Z,144001.09
2023-03-04T04:54:56.418Z,144004.72
2023-03-04T04:57:23.516Z,144021.66
2023-03-04T04:59:50.534Z,143960.00
2023-03-04T05:02:17.615Z,144016.84
2023-03-04T05:04:44.611Z,144002.34
2023-03-04T05:07:11.650Z,144002.34
2023-03-04T05:09:38.721Z,143989.03
2023-03-04T05:12:05.913Z,143996.25
2023-03-04T05:14:32.996Z,143970.91
2023-03-04T05:17:04.304Z,143985.41
2023-03-04T05:19:31.348Z,143970.91
2023-03-04T05:22:54.385Z,144007.16
2023-03-04T05:25:21.633Z,143879.03
2023-03-04T05:27:48.672Z,143960.00
2023-03-04T05:30:15.716Z,144013.19
2023-03-04T05:32:42.860Z,144008.38
2023-03-04T05:35:09.920Z,143920.13
2023-03-04T05:37:36.948Z,143993.88
2023-03-04T05:40:05.165Z,144004.72
2023-03-04T05:42:32.177Z,144014.41
2023-03-04T05:44:59.178Z,144010.75
2023-03-04T05:47:26.207Z,144026.50
2023-03-04T05:49:54.422Z,144005.94
2023-03-04T05:52:21.524Z,144044.63
2023-03-04T05:54:48.518Z,144019.22
2023-03-04T05:57:15.574Z,144020.47
2023-03-04T05:59:42.629Z,144033.78
2023-03-04T06:02:09.650Z,143999.91
2023-03-04T06:04:36.726Z,144033.78
2023-03-04T06:07:03.777Z,144041.00
2023-03-04T06:09:30.762Z,144055.50
2023-03-04T06:11:57.770Z,144031.34
2023-03-04T06:14:24.877Z,144024.06
2023-03-04T06:16:52.220Z,144038.59
2023-03-04T06:19:19.367Z,144031.34
2023-03-04T06:21:46.466Z,144045.81
2023-03-04T06:24:13.714Z,144042.19
2023-03-04T06:26:40.796Z,144062.78
2023-03-04T06:29:07.822Z,143966.06
2023-03-04T06:31:34.930Z,144048.28
2023-03-04T06:34:02.009Z,144031.34
2023-03-04T06:36:29.038Z,144067.59
2023-03-04T06:38:56.097Z,144053.09
2023-03-04T06:41:23.088Z,144072.44
2023-03-04T06:43:50.081Z,144077.28
2023-03-04T06:46:17.123Z,144089.38
2023-03-04T06:48:44.116Z,144026.50
2023-03-04T06:51:13.857Z,144099.03
2023-03-04T06:53:41.797Z,144111.16
2023-03-04T06:56:10.718Z,144074.88
2023-03-04T06:58:37.970Z,144077.28
2023-03-04T07:01:16.641Z,144094.22
2023-03-04T07:03:44.565Z,144077.28
2023-03-04T07:06:13.060Z,144070.03
2023-03-04T07:08:40.360Z,144099.03
2023-03-04T07:11:08.222Z,144124.44
2023-03-04T07:13:38.211Z,144108.72
2023-03-04T07:16:10.290Z,144106.31
2023-03-04T07:18:38.009Z,144113.53
2023-03-04T07:21:06.685Z,144070.03
2023-03-04T07:23:35.149Z,144105.06
2023-03-04T07:26:03.317Z,144107.50
2023-03-04T07:28:30.451Z,144070.03
2023-03-04T07:30:57.615Z,144140.16
2023-03-04T07:33:24.631Z,144161.94
2023-03-04T07:35:59.753Z,144169.16
2023-03-04T07:38:26.808Z,144165.56
2023-03-04T07:40:58.291Z,144176.44
2023-03-04T07:43:25.552Z,144176.44
2023-03-04T07:45:52.604Z,144187.31
2023-03-04T07:48:19.602Z,144184.91
2023-03-04T07:50:46.656Z,144077.28
2023-03-04T07:53:13.641Z,144175.25
2023-03-04T07:55:40.645Z,144164.31
2023-03-04T07:58:07.615Z,144183.72
2023-03-04T08:00:34.665Z,144193.38
2023-03-04T08:03:01.662Z,144171.59
2023-03-04T08:05:28.690Z,144212.72
2023-03-04T08:07:57.895Z,144210.28
2023-03-04T08:10:24.943Z,144227.22
2023-03-04T08:12:52.029Z,144236.91
2023-03-04T08:15:19.030Z,144212.72
2023-03-04T08:17:46.008Z,144143.78
2023-03-04T08:20:13.159Z,144223.59
2023-03-04T08:22:40.237Z,144224.84
2023-03-04T08:25:07.552Z,144288.94
2023-03-04T08:27:34.757Z,144279.28
2023-03-04T08:30:01.746Z,144336.13
2023-03-04T08:32:28.971Z,144331.28
2023-03-04T08:34:56.891Z,144285.31
2023-03-04T08:37:24.021Z,144351.88
2023-03-04T08:39:51.128Z,144317.97
2023-03-04T08:42:18.151Z,144345.78
2023-03-04T08:44:45.141Z,144303.47
2023-03-04T08:47:12.424Z,144327.66
2023-03-04T08:49:39.441Z,144340.97
2023-03-04T08:52:06.715Z,144326.44
2023-03-04T08:54:33.848Z,144367.59
2023-03-04T08:57:00.860Z,144385.75
2023-03-04T08:59:27.845Z,144362.75
2023-03-04T09:01:54.861Z,144348.25
2023-03-04T09:04:21.960Z,144377.25
2023-03-04T09:06:53.897Z,144367.59
2023-03-04T09:09:21.099Z,144361.56
2023-03-04T09:11:48.189Z,144357.91
2023-03-04T09:14:15.220Z,144396.66
2023-03-04T09:16:42.226Z,144391.78
2023-03-04T09:19:09.372Z,144367.59
2023-03-04T09:21:36.658Z,144377.25
2023-03-04T09:24:03.839Z,144309.50
2023-03-04T09:26:30.911Z,144400.25
2023-03-04T09:29:00.504Z,144440.22
2023-03-04T09:31:28.581Z,144384.53
2023-03-04T09:33:57.840Z,144466.84
2023-03-04T09:36:24.900Z,144524.97
2023-03-04T09:38:51.933Z,144562.50
2023-03-04T09:41:24.178Z,144566.13
2023-03-04T09:43:54.244Z,144597.63
2023-03-04T09:46:38.720Z,144642.44
2023-03-04T09:49:07.537Z,144636.38
2023-03-04T09:51:56.790Z,144694.56
2023-03-04T09:54:37.357Z,144706.69
2023-03-04T09:57:42.161Z,144669.06
2023-03-04T10:00:25.906Z,144694.56
2023-03-04T10:03:19.500Z,144753.94
2023-03-04T10:05:57.497Z,144721.22
2023-03-04T10:08:49.566Z,144795.13
2023-03-04T10:11:24.744Z,144804.81
2023-03-04T10:14:00.247Z,144776.94
2023-03-04T10:16:37.390Z,144809.66
2023-03-04T10:19:29.210Z,144832.69
2023-03-04T10:21:59.612Z,144818.16
2023-03-04T10:24:29.251Z,144867.84
2023-03-04T10:27:02.559Z,144895.72
2023-03-04T10:29:32.623Z,144906.66
2023-03-04T10:31:59.899Z,144843.63
2023-03-04T10:34:27.031Z,144958.78
2023-03-04T10:37:01.259Z,144979.41
2023-03-04T10:39:32.010Z,145019.44
2023-03-04T10:42:05.062Z,145064.28
2023-03-04T10:44:34.618Z,145057.03
2023-03-04T10:47:01.801Z,145008.50
2023-03-04T10:49:29.986Z,145041.22
2023-03-04T10:52:23.648Z,145050.94
2023-03-04T10:54:54.527Z,145036.38
2023-03-04T10:57:29.050Z,145007.28
2023-03-04T11:00:01.820Z,144985.47
2023-03-04T11:02:30.850Z,144973.31
2023-03-04T11:05:23.875Z,144968.47
2023-03-04T11:08:00.493Z,145009.69
2023-03-04T11:10:40.361Z,145021.84
2023-03-04T11:13:17.363Z,145030.34
2023-03-04T11:15:50.446Z,145017.00
2023-03-04T11:18:24.112Z,144949.09
2023-03-04T11:20:51.260Z,144983.06
2023-03-04T11:23:39.691Z,144907.88
2023-03-04T11:26:12.545Z,144911.50
2023-03-04T11:28:53.629Z,144923.59
2023-03-04T11:31:27.273Z,144964.88
2023-03-04T11:34:02.939Z,144951.53
2023-03-04T11:37:03.473Z,144962.44
2023-03-04T11:39:47.474Z,144918.75
2023-03-04T11:42:39.886Z,144932.09
2023-03-04T11:45:29.561Z,144934.53
2023-03-04T11:48:17.765Z,144886.03
2023-03-04T11:50:53.261Z,144917.56
2023-03-04T11:53:23.382Z,144888.47
2023-03-04T11:56:11.390Z,144866.66
2023-03-04T11:59:01.960Z,144876.34
2023-03-04T12:01:43.543Z,144808.47
2023-03-04T12:04:35.353Z,144878.78
2023-03-04T12:07:50.480Z,144895.72
2023-03-04T12:14:41.326Z,144853.31
2023-03-04T12:18:17.378Z,144898.16
2023-03-04T12:21:10.143Z,144904.22
2023-03-04T12:24:06.552Z,144903.00
2023-03-04T12:26:55.085Z,144867.84
2023-03-04T12:29:39.556Z,144764.88
2023-03-04T12:32:31.587Z,144808.47
2023-03-04T12:35:27.851Z,144757.56
2023-03-04T12:38:12.416Z,144750.28
2023-03-04T12:40:58.197Z,144750.28
2023-03-04T12:43:49.722Z,144766.06
2023-03-04T12:46:27.538Z,144808.47
2023-03-04T12:49:19.602Z,144801.22
2023-03-04T12:52:02.848Z,144798.78
2023-03-04T12:54:37.151Z,144818.16
2023-03-04T12:57:12.178Z,144833.94
2023-03-04T12:59:52.014Z,144847.28
2023-03-04T13:02:35.854Z,144816.97
2023-03-04T13:05:34.105Z,144830.28
2023-03-04T13:08:22.566Z,144824.25
2023-03-04T13:10:51.350Z,144791.47
2023-03-04T13:13:40.179Z,144802.41
2023-03-04T13:16:32.467Z,144837.56
2023-03-04T13:18:59.676Z,144836.34
2023-03-04T13:21:31.500Z,144860.59
2023-03-04T13:24:21.652Z,144878.78
2023-03-04T13:26:48.772Z,144910.31
2023-03-04T13:29:18.791Z,144910.31
2023-03-04T13:31:57.745Z,144920.00
2023-03-04T13:34:53.916Z,144946.69
2023-03-04T13:37:26.892Z,145007.28
2023-03-04T13:40:27.346Z,144996.34
2023-03-04T13:42:55.606Z,144898.16
2023-03-04T13:45:36.667Z,144917.56
2023-03-04T13:48:21.434Z,144944.22
2023-03-04T13:50:50.546Z,144929.69
2023-03-04T13:53:30.979Z,144949.09
2023-03-04T13:56:10.061Z,144943.03
2023-03-04T13:58:38.091Z,144978.16
2023-03-04T14:01:06.882Z,144940.59
2023-03-04T14:03:35.436Z,144905.41
2023-03-04T14:06:29.315Z,144876.34
2023-03-04T14:08:57.332Z,144852.13
2023-03-04T14:11:33.975Z,144855.75
2023-03-04T14:14:05.654Z,144910.31
2023-03-04T14:16:39.838Z,144922.41
2023-03-04T14:19:13.866Z,144911.50
2023-03-04T14:21:45.118Z,144938.19
2023-03-04T14:24:16.009Z,144972.13
2023-03-04T14:26:43.225Z,144985.47
2023-03-04T14:29:27.939Z,145002.44
2023-03-04T14:31:56.079Z,144966.06
2023-03-04T14:34:32.285Z,144976.97
2023-03-04T14:37:00.159Z,144950.28
2023-03-04T14:39:30.566Z,144933.34
2023-03-04T14:42:02.021Z,144923.59
2023-03-04T14:44:36.056Z,144883.63
2023-03-04T14:47:26.538Z,144855.75
2023-03-04T14:49:53.914Z,144852.13
2023-03-04T14:52:35.189Z,144819.41
2023-03-04T14:55:14.105Z,144810.91
2023-03-04T14:57:43.266Z,144763.63
2023-03-04T15:00:22.289Z,144758.78
2023-03-04T15:02:55.744Z,144652.13
2023-03-04T15:05:34.600Z,144688.53
2023-03-04T15:08:05.202Z,144735.75
2023-03-04T15:10:37.964Z,144687.28
2023-03-04T15:13:07.721Z,144672.75
2023-03-04T15:16:01.104Z,144746.69
2023-03-04T15:18:30.156Z,144774.56
2023-03-04T15:21:20.619Z,144759.97
2023-03-04T15:23:47.693Z,144759.97
2023-03-04T15:26:14.758Z,144756.38
2023-03-04T15:28:42.882Z,144738.19
2023-03-04T15:31:18.083Z,144733.34
2023-03-04T15:33:45.980Z,144728.50
2023-03-04T15:36:16.349Z,144718.78
2023-03-04T15:38:52.625Z,144629.13
2023-03-04T15:41:26.915Z,144643.66
2023-03-04T15:43:54.580Z,144689.72
2023-03-04T15:46:22.121Z,144641.22
2023-03-04T15:48:49.388Z,144572.19
2023-03-04T15:51:22.071Z,144646.06
2023-03-04T15:53:51.887Z,144627.88
2023-03-04T15:56:24.349Z,144614.56
2023-03-04T15:58:56.617Z,144647.28
2023-03-04T16:01:24.572Z,144648.50
2023-03-04T16:03:53.522Z,144730.91
2023-03-04T16:06:23.686Z,144694.56
2023-03-04T16:08:52.071Z,144686.09
2023-03-04T16:11:30.837Z,144684.88
2023-03-04T16:13:58.096Z,144609.72
2023-03-04T16:16:25.364Z,144581.88
2023-03-04T16:18:52.558Z,144646.06
2023-03-04T16:21:23.189Z,144607.31
2023-03-04T16:23:52.414Z,144643.66
2023-03-04T16:26:22.853Z,144618.19
2023-03-04T16:28:51.051Z,144558.84
2023-03-04T16:31:19.775Z,144612.16
2023-03-04T16:33:47.185Z,144545.53
2023-03-04T16:36:23.790Z,144575.81
2023-03-04T16:38:52.205Z,144627.88
2023-03-04T16:41:24.901Z,144627.88
2023-03-04T16:43:51.896Z,144621.84
2023-03-04T16:46:18.936Z,144549.19
2023-03-04T16:48:47.683Z,144620.63
2023-03-04T16:51:18.232Z,144624.28
2023-03-04T16:53:49.209Z,144587.94
2023-03-04T16:56:17.784Z,144608.50
2023-03-04T16:58:45.982Z,144595.19
2023-03-04T17:01:17.617Z,144574.63
2023-03-04T17:03:44.975Z,144624.28
2023-03-04T17:06:13.333Z,144602.47
2023-03-04T17:08:40.636Z,144564.94
2023-03-04T17:11:08.249Z,144561.31
2023-03-04T17:17:42.588Z,144561.31
2023-03-04T17:20:13.248Z,144580.66
2023-03-04T17:22:40.394Z,144561.31
2023-03-04T17:25:08.182Z,144583.09
2023-03-04T17:27:35.800Z,144534.66
2023-03-04T17:30:05.657Z,144419.66
2023-03-04T17:32:33.178Z,144568.53
2023-03-04T17:35:00.369Z,144569.78
2023-03-04T17:37:27.474Z,144573.38
2023-03-04T17:39:54.548Z,144506.81
2023-03-04T17:42:21.704Z,144604.88
2023-03-04T17:44:54.795Z,144552.81
2023-03-04T17:47:22.549Z,144578.22
2023-03-04T17:49:50.692Z,144595.19
2023-03-04T17:52:18.994Z,144607.31
2023-03-04T17:54:46.731Z,144488.66
2023-03-04T17:57:14.191Z,144570.97
2023-03-04T17:59:41.406Z,144585.50
2023-03-04T18:02:14.245Z,144556.47
2023-03-04T18:04:42.505Z,144577.03
2023-03-04T18:07:09.542Z,144560.06
2023-03-04T18:09:36.574Z,144583.09
2023-03-04T18:12:06.876Z,144572.19
2023-03-04T18:14:34.019Z,144595.19
2023-03-04T18:17:01.059Z,144566.13
2023-03-04T18:19:28.268Z,144558.84
2023-03-04T18:21:55.947Z,144531.00
2023-03-04T18:24:23.506Z,144447.50
2023-03-04T18:26:50.620Z,144557.66
2023-03-04T18:29:17.654Z,144549.19
2023-03-04T18:31:44.821Z,144578.22
2023-03-04T18:34:11.869Z,144556.47
2023-03-04T18:36:39.306Z,144546.78
2023-03-04T18:39:07.405Z,144547.97
2023-03-04T18:41:34.875Z,144534.66
2023-03-04T18:44:02.035Z,144549.19
2023-03-04T18:46:38.216Z,144556.47
2023-03-04T18:49:08.854Z,144555.22
2023-03-04T18:51:36.327Z,144543.13
2023-03-04T18:54:03.472Z,144529.81
2023-03-04T18:56:38.106Z,144570.97
2023-03-04T18:59:08.614Z,144551.63
2023-03-04T19:01:36.796Z,144551.63
2023-03-04T19:04:05.571Z,144524.97
2023-03-04T19:06:34.077Z,144529.81
2023-03-04T19:09:01.717Z,144428.09
2023-03-04T19:11:29.882Z,144552.81
2023-03-04T19:13:57.158Z,144516.50
2023-03-04T19:20:40.576Z,144500.72
2023-03-04T19:33:49.576Z,144529.81
2023-03-04T19:36:16.604Z,144498.31
2023-03-04T19:38:43.981Z,144501.97
2023-03-04T19:41:16.066Z,144516.50
2023-03-04T19:43:43.243Z,144528.63
2023-03-04T19:46:10.726Z,144512.84
2023-03-04T19:48:39.492Z,144539.50
2023-03-04T19:51:35.969Z,144510.44
2023-03-04T19:54:03.402Z,144462.00
2023-03-04T19:56:30.538Z,144442.66
2023-03-04T19:58:57.751Z,144478.97
2023-03-04T20:01:28.221Z,144480.16
2023-03-04T20:03:57.786Z,144471.69
2023-03-04T20:06:26.966Z,144468.03
2023-03-04T20:08:59.871Z,144500.72
2023-03-04T20:11:28.189Z,144500.72
2023-03-04T20:13:58.213Z,144499.53
2023-03-04T20:16:25.914Z,144489.84
2023-03-04T20:18:53.306Z,144459.56
2023-03-04T20:21:20.658Z,144458.38
2023-03-04T20:23:47.717Z,144471.69
2023-03-04T20:26:14.834Z,144509.22
2023-03-04T20:28:51.111Z,144510.44
2023-03-04T20:31:27.114Z,144495.88
2023-03-04T20:33:55.883Z,144413.56
2023-03-04T20:36:25.912Z,144462.00
2023-03-04T20:39:02.107Z,144428.09
2023-03-04T20:41:30.854Z,144459.56
2023-03-04T20:43:58.196Z,144395.41
2023-03-04T20:46:42.965Z,144445.06
2023-03-04T20:49:16.428Z,144425.69
2023-03-04T20:51:43.687Z,144394.22
2023-03-04T20:54:11.235Z,144437.81
2023-03-04T20:56:39.014Z,144428.09
2023-03-04T20:59:08.886Z,144408.72
2023-03-04T21:01:39.302Z,144366.38
2023-03-04T21:04:07.093Z,144374.88
2023-03-04T21:06:34.355Z,144408.72
2023-03-04T21:09:04.213Z,144309.50
2023-03-04T21:11:31.595Z,144374.88
2023-03-04T21:13:58.777Z,144379.69
2023-03-04T21:16:29.952Z,144384.53
2023-03-04T21:18:57.112Z,144393.03
2023-03-04T21:21:27.069Z,144322.81
2023-03-04T21:23:55.866Z,144351.88
2023-03-04T21:26:23.734Z,144408.72
2023-03-04T21:32:57.671Z,144367.59
2023-03-04T21:35:24.828Z,144270.81
2023-03-04T21:37:51.984Z,144372.44
2023-03-04T21:40:19.150Z,144402.69
2023-03-04T21:42:46.557Z,144389.38
2023-03-04T21:45:13.619Z,144376.06
2023-03-04T21:47:40.634Z,144384.53
2023-03-04T21:50:08.338Z,144383.34
2023-03-04T21:52:35.544Z,144386.94
2023-03-04T21:55:02.595Z,144343.41
2023-03-04T21:57:29.648Z,144382.09
2023-03-04T21:59:56.788Z,144367.59
2023-03-04T22:02:24.128Z,144331.28
2023-03-04T22:04:51.264Z,144343.41
2023-03-04T22:07:18.278Z,144345.78
2023-03-04T22:09:45.573Z,144342.19
2023-03-04T22:12:14.316Z,144356.72
2023-03-04T22:14:41.492Z,144317.97
2023-03-04T22:17:08.581Z,144282.88
2023-03-04T22:19:35.709Z,144338.56
2023-03-04T22:22:02.771Z,144349.44
2023-03-04T22:24:29.760Z,144360.34
2023-03-04T22:26:57.580Z,144357.91
2023-03-04T22:29:24.601Z,144334.91
2023-03-04T22:31:51.772Z,144328.88
2023-03-04T22:34:18.895Z,144307.09
2023-03-04T22:36:47.288Z,144344.59
2023-03-04T22:39:16.794Z,144328.88
2023-03-04T22:41:44.354Z,144319.16
2023-03-04T22:44:11.392Z,144281.66
2023-03-04T22:46:39.132Z,144265.97
2023-03-04T22:49:09.837Z,144343.41
2023-03-04T22:51:38.205Z,144355.47
2023-03-04T22:54:05.284Z,144342.19
2023-03-04T22:56:32.887Z,144356.72
2023-03-04T22:58:59.975Z,144336.13
2023-03-04T23:01:27.047Z,144255.03
2023-03-04T23:03:54.152Z,144331.28
2023-03-04T23:06:25.159Z,144349.44
2023-03-04T23:08:52.568Z,144274.44
2023-03-04T23:11:23.357Z,144361.56
2023-03-04T23:13:50.735Z,144282.88
2023-03-04T23:16:19.075Z,144347.03
2023-03-04T23:18:47.587Z,144299.81
2023-03-04T23:21:20.863Z,144344.59
2023-03-04T23:23:48.407Z,144332.47
2023-03-04T23:26:18.691Z,144354.28
2023-03-04T23:28:46.134Z,144328.88
2023-03-04T23:31:16.680Z,144328.88
2023-03-04T23:33:44.572Z,144316.78
2023-03-04T23:36:15.216Z,144319.16
2023-03-04T23:38:44.710Z,144293.78
2023-03-04T23:41:14.340Z,144276.84
2023-03-04T23:43:41.372Z,144253.84
2023-03-04T23:46:11.751Z,144253.84
2023-03-04T23:48:40.179Z,144250.22
2023-03-04T23:51:09.497Z,144280.47
2023-03-04T23:53:38.894Z,144294.97
2023-03-04T23:56:17.600Z,144253.84
2023-03-04T23:58:44.749Z,144246.56
